Time;durP1;ratioP1;P1;durP2;ratioP2;P2;SDS_P1;SDS_P2;PMS_P1;PMS_P2;Temp;Humidity;BMP_temperature;BMP_pressure;BME280_temperature;BME280_humidity;BME280_pressure;Samples;Min_cycle;Max_cycle;Signal;HPM_P1;HPM_P2
2021/07/25 00:00:51;;;;;;;28.40;24.87;;;18.80;99.90;;;;;;5035608;28;20190;-42
2021/07/25 00:03:17;;;;;;;31.27;24.10;;;18.80;99.90;;;;;;5026531;28;20190;-41
2021/07/25 00:05:43;;;;;;;27.97;25.13;;;18.80;99.90;;;;;;5040036;28;20425;-41
2021/07/25 00:08:12;;;;;;;28.33;23.40;;;18.70;99.90;;;;;;5045283;28;20626;-42
2021/07/25 00:10:42;;;;;;;27.60;23.97;;;18.80;99.90;;;;;;5038646;28;20440;-43
2021/07/25 00:13:09;;;;;;;33.80;26.43;;;18.80;99.90;;;;;;5025851;28;20477;-45
2021/07/25 00:15:35;;;;;;;26.97;24.17;;;18.70;99.90;;;;;;5030527;28;20428;-41
2021/07/25 00:18:01;;;;;;;27.90;24.90;;;18.70;99.90;;;;;;5026121;28;20794;-43
2021/07/25 00:20:26;;;;;;;26.13;23.43;;;18.70;99.90;;;;;;5025900;28;20512;-41
2021/07/25 00:22:52;;;;;;;31.07;24.70;;;18.70;99.90;;;;;;5028721;28;20190;-43
2021/07/25 00:25:21;;;;;;;27.83;24.90;;;18.70;99.90;;;;;;5038655;28;20218;-42
2021/07/25 00:27:55;;;;;;;27.77;24.40;;;18.70;99.90;;;;;;5035149;28;20194;-41
2021/07/25 00:30:23;;;;;;;26.57;23.40;;;18.70;99.90;;;;;;5027256;28;20424;-41
2021/07/25 00:32:49;;;;;;;28.57;22.20;;;18.60;99.90;;;;;;5025731;28;21410;-47
2021/07/25 00:35:17;;;;;;;24.83;22.13;;;18.60;99.90;;;;;;5025589;28;20429;-46
2021/07/25 00:37:47;;;;;;;25.70;22.10;;;18.60;99.90;;;;;;5033778;28;20848;-44
2021/07/25 00:40:15;;;;;;;23.90;21.40;;;18.60;99.90;;;;;;5043269;28;20424;-40
2021/07/25 00:42:40;;;;;;;22.80;20.43;;;18.60;99.90;;;;;;5031495;28;20420;-40
2021/07/25 00:45:07;;;;;;;22.53;20.23;;;18.50;99.90;;;;;;5029779;28;20425;-43
2021/07/25 00:47:34;;;;;;;22.67;20.27;;;18.50;99.90;;;;;;5029778;28;20214;-41
2021/07/25 00:50:02;;;;;;;24.77;21.30;;;18.50;99.90;;;;;;5028250;28;20436;-45
2021/07/25 00:52:29;;;;;;;22.43;19.90;;;18.60;99.90;;;;;;5029668;28;20449;-40
2021/07/25 00:54:55;;;;;;;23.73;21.20;;;18.50;99.90;;;;;;5038822;28;20425;-40
2021/07/25 00:57:20;;;;;;;23.67;21.20;;;18.50;99.90;;;;;;5035420;28;20444;-43
2021/07/25 00:59:46;;;;;;;24.70;20.60;;;18.50;99.90;;;;;;5029035;28;20258;-43
2021/07/25 01:02:12;;;;;;;24.73;22.07;;;18.50;99.90;;;;;;5035818;28;20190;-42
2021/07/25 01:05:06;;;;;;;25.80;23.00;;;18.50;99.90;;;;;;5034208;28;20598;-45
2021/07/25 01:07:49;;;;;;;24.13;21.33;;;18.50;99.90;;;;;;5028759;28;20197;-41
2021/07/25 01:10:23;;;;;;;23.27;20.30;;;18.50;99.90;;;;;;5040270;28;20797;-40
2021/07/25 01:13:09;;;;;;;24.43;20.80;;;18.50;99.90;;;;;;5039594;28;20989;-43
2021/07/25 01:15:35;;;;;;;26.23;22.30;;;18.50;99.90;;;;;;5030479;28;20412;-43
2021/07/25 01:18:00;;;;;;;25.70;22.33;;;18.50;99.90;;;;;;5028821;28;20520;-43
2021/07/25 01:20:26;;;;;;;25.40;21.73;;;18.50;99.90;;;;;;5028670;28;20422;-40
2021/07/25 01:22:55;;;;;;;29.87;21.87;;;18.50;99.90;;;;;;5028090;28;20218;-43
2021/07/25 01:25:23;;;;;;;24.63;21.97;;;18.60;99.90;;;;;;5043018;28;20648;-41
2021/07/25 01:27:57;;;;;;;26.63;23.80;;;18.60;99.90;;;;;;5035545;28;20524;-43
2021/07/25 01:30:44;;;;;;;24.00;21.43;;;18.60;99.90;;;;;;5030884;28;20428;-45
2021/07/25 01:33:12;;;;;;;28.83;23.93;;;18.60;99.90;;;;;;5034378;28;20530;-42
2021/07/25 01:35:40;;;;;;;25.60;21.87;;;18.60;99.90;;;;;;5027013;28;20953;-44
2021/07/25 01:38:09;;;;;;;25.87;23.13;;;18.60;99.90;;;;;;5029111;28;21016;-44
2021/07/25 01:40:35;;;;;;;25.20;22.67;;;18.60;99.90;;;;;;5034909;28;20420;-41
2021/07/25 01:43:01;;;;;;;26.00;23.17;;;18.60;99.90;;;;;;5031830;28;20791;-45
2021/07/25 01:45:27;;;;;;;27.33;22.93;;;18.60;99.90;;;;;;5026947;28;20492;-42
2021/07/25 01:47:52;;;;;;;27.67;22.30;;;18.70;99.90;;;;;;5026719;28;20927;-44
2021/07/25 01:50:18;;;;;;;27.70;24.70;;;18.60;99.90;;;;;;5027706;28;20190;-40
2021/07/25 01:52:44;;;;;;;26.93;22.73;;;18.70;99.90;;;;;;5034819;28;20221;-45
2021/07/25 01:55:10;;;;;;;27.57;23.77;;;18.60;99.90;;;;;;5032704;28;20217;-40
2021/07/25 01:57:36;;;;;;;28.07;23.67;;;18.70;99.90;;;;;;5043983;28;20456;-42
2021/07/25 02:00:04;;;;;;;29.07;23.70;;;18.60;99.90;;;;;;5028549;28;20437;-42
2021/07/25 02:02:29;;;;;;;29.53;22.70;;;18.70;99.90;;;;;;5031242;28;20742;-42
2021/07/25 02:04:55;;;;;;;26.83;22.57;;;18.70;99.90;;;;;;5035506;28;20420;-42
2021/07/25 02:07:20;;;;;;;29.63;23.90;;;18.70;99.90;;;;;;5046572;28;20239;-43
2021/07/25 02:09:46;;;;;;;29.47;25.13;;;18.70;99.90;;;;;;5031726;28;20823;-40
2021/07/25 02:12:12;;;;;;;26.50;22.93;;;18.60;99.90;;;;;;5035809;28;20285;-41
2021/07/25 02:14:39;;;;;;;27.23;24.27;;;18.70;99.90;;;;;;5027091;28;20217;-42
2021/07/25 02:17:06;;;;;;;26.10;22.90;;;18.60;99.90;;;;;;5039914;28;20190;-44
2021/07/25 02:19:32;;;;;;;26.37;23.57;;;18.60;99.90;;;;;;5027634;28;20427;-41
2021/07/25 02:21:58;;;;;;;33.83;24.03;;;18.60;99.90;;;;;;5027951;28;21002;-43
2021/07/25 02:24:24;;;;;;;27.40;24.50;;;18.60;99.90;;;;;;5035641;28;20564;-40
2021/07/25 02:26:50;;;;;;;29.40;24.20;;;18.50;99.90;;;;;;5033614;28;20270;-42
2021/07/25 02:29:16;;;;;;;28.10;23.57;;;18.50;99.90;;;;;;5027000;28;20742;-46
2021/07/25 02:31:42;;;;;;;27.57;23.93;;;18.60;99.90;;;;;;5035354;28;20431;-45
2021/07/25 02:34:08;;;;;;;27.77;24.40;;;18.60;99.90;;;;;;5027127;28;20963;-45
2021/07/25 02:36:34;;;;;;;29.80;24.80;;;18.50;99.90;;;;;;5026654;28;20429;-42
2021/07/25 02:39:00;;;;;;;27.07;22.40;;;18.50;99.90;;;;;;5035106;28;20424;-42
2021/07/25 02:41:25;;;;;;;27.50;24.50;;;18.50;99.90;;;;;;5041862;28;20678;-43
2021/07/25 02:43:51;;;;;;;27.03;24.13;;;18.50;99.90;;;;;;5039464;28;20285;-47
2021/07/25 02:46:17;;;;;;;28.63;23.90;;;18.50;99.90;;;;;;5028727;28;20621;-44
2021/07/25 02:48:42;;;;;;;33.33;24.87;;;18.50;99.90;;;;;;5027237;28;20759;-42
2021/07/25 02:51:08;;;;;;;31.80;24.77;;;18.50;99.90;;;;;;5027085;28;20194;-43
2021/07/25 02:53:34;;;;;;;29.30;25.07;;;18.40;99.90;;;;;;5029352;28;20271;-45
2021/07/25 02:55:59;;;;;;;28.17;23.90;;;18.40;99.90;;;;;;5041769;28;20657;-41
2021/07/25 02:58:25;;;;;;;28.83;24.57;;;18.40;99.90;;;;;;5035439;28;20214;-42
2021/07/25 03:00:51;;;;;;;28.30;25.27;;;18.40;99.90;;;;;;5026551;28;20198;-44
2021/07/25 03:03:16;;;;;;;30.10;25.50;;;18.40;99.90;;;;;;5026575;28;20187;-46
2021/07/25 03:05:42;;;;;;;27.70;24.30;;;18.30;99.90;;;;;;5040888;28;20221;-44
2021/07/25 03:08:08;;;;;;;28.47;23.93;;;18.30;99.90;;;;;;5045651;28;20232;-42
2021/07/25 03:10:34;;;;;;;25.00;22.40;;;18.30;99.90;;;;;;5037788;28;20200;-43
2021/07/25 03:12:59;;;;;;;28.60;24.63;;;18.30;99.90;;;;;;5032050;28;20794;-42
2021/07/25 03:15:25;;;;;;;28.20;24.20;;;18.30;99.90;;;;;;5025976;28;20564;-43
2021/07/25 03:17:52;;;;;;;28.23;22.90;;;18.30;99.90;;;;;;5034956;28;20189;-40
2021/07/25 03:20:18;;;;;;;26.77;23.03;;;18.30;99.90;;;;;;5026815;28;20597;-42
2021/07/25 03:22:44;;;;;;;29.60;24.00;;;18.30;99.90;;;;;;5024343;28;20963;-40
2021/07/25 03:25:10;;;;;;;26.20;22.97;;;18.20;99.90;;;;;;5037192;28;20424;-44
2021/07/25 03:27:36;;;;;;;26.47;22.37;;;18.30;99.90;;;;;;5040737;28;20193;-43
2021/07/25 03:30:02;;;;;;;27.80;22.23;;;18.20;99.90;;;;;;5031231;28;20429;-41
2021/07/25 03:32:28;;;;;;;29.67;23.90;;;18.20;99.90;;;;;;5031669;28;20477;-40
2021/07/25 03:34:54;;;;;;;27.37;22.63;;;18.20;99.90;;;;;;5025448;28;20475;-44
2021/07/25 03:37:19;;;;;;;30.43;23.83;;;18.20;99.90;;;;;;5026417;28;20281;-43
2021/07/25 03:39:47;;;;;;;26.50;21.60;;;18.20;99.90;;;;;;5040719;28;20667;-43
2021/07/25 03:42:14;;;;;;;26.30;22.57;;;18.20;99.90;;;;;;5041775;28;20189;-41
2021/07/25 03:44:40;;;;;;;25.87;22.57;;;18.10;99.90;;;;;;5028740;28;20436;-43
2021/07/25 03:47:06;;;;;;;26.40;21.97;;;18.10;99.90;;;;;;5032939;28;20433;-44
2021/07/25 03:49:31;;;;;;;26.67;21.30;;;18.00;99.90;;;;;;5025883;28;20605;-41
2021/07/25 03:51:58;;;;;;;29.30;22.73;;;18.00;99.90;;;;;;5026057;28;20956;-43
2021/07/25 03:54:23;;;;;;;24.03;21.40;;;17.90;99.90;;;;;;5029590;28;20658;-40
2021/07/25 03:56:49;;;;;;;26.13;20.60;;;17.90;99.90;;;;;;5035105;28;20425;-44
2021/07/25 03:59:15;;;;;;;25.97;21.17;;;17.80;99.90;;;;;;5030523;28;20202;-40
2021/07/25 04:01:41;;;;;;;24.67;22.00;;;17.80;99.90;;;;;;5029162;28;20522;-44
2021/07/25 04:04:06;;;;;;;25.77;22.00;;;17.70;99.90;;;;;;5012915;28;20377;-44
2021/07/25 04:06:32;;;;;;;24.97;20.87;;;17.70;99.90;;;;;;5025783;28;20186;-41
2021/07/25 04:08:58;;;;;;;25.33;21.70;;;17.60;99.90;;;;;;5025939;28;20297;-41
2021/07/25 04:11:24;;;;;;;23.53;20.60;;;17.60;99.90;;;;;;5036790;28;20238;-44
2021/07/25 04:13:49;;;;;;;26.73;22.07;;;17.50;99.90;;;;;;5033245;28;20545;-42
2021/07/25 04:16:16;;;;;;;26.30;20.87;;;17.50;99.90;;;;;;5030024;28;20656;-45
2021/07/25 04:18:41;;;;;;;25.30;21.67;;;17.60;99.90;;;;;;5035432;28;20186;-46
2021/07/25 04:21:07;;;;;;;24.97;21.93;;;17.60;99.90;;;;;;5029752;28;20427;-42
2021/07/25 04:23:33;;;;;;;22.77;20.03;;;17.60;99.90;;;;;;5029134;28;20198;-45
2021/07/25 04:25:58;;;;;;;24.90;21.97;;;17.70;99.90;;;;;;5032510;28;20186;-43
2021/07/25 04:28:24;;;;;;;25.20;21.50;;;17.70;99.90;;;;;;5036848;28;20186;-40
2021/07/25 04:30:50;;;;;;;26.07;21.97;;;17.70;99.90;;;;;;5029813;28;20524;-42
2021/07/25 04:33:17;;;;;;;26.13;22.33;;;17.70;99.90;;;;;;5030146;28;20472;-41
2021/07/25 04:35:43;;;;;;;27.97;22.57;;;17.70;99.90;;;;;;5029317;28;20179;-41
2021/07/25 04:38:09;;;;;;;26.07;21.97;;;17.70;99.90;;;;;;5029930;28;20440;-43
2021/07/25 04:40:36;;;;;;;26.83;22.20;;;17.70;99.90;;;;;;5037832;28;20424;-39
2021/07/25 04:43:03;;;;;;;24.87;21.93;;;17.80;99.90;;;;;;5034714;28;20420;-46
2021/07/25 04:45:56;;;;;;;29.00;23.77;;;17.70;99.90;;;;;;5029771;28;20429;-41
2021/07/25 04:48:54;;;;;;;24.63;20.83;;;17.70;99.90;;;;;;5030444;28;20429;-40
2021/07/25 04:51:22;;;;;;;32.30;24.37;;;17.60;99.90;;;;;;5028976;28;20424;-40
2021/07/25 04:53:51;;;;;;;27.63;23.63;;;17.70;99.90;;;;;;5028028;28;20468;-42
2021/07/25 04:56:20;;;;;;;27.40;23.33;;;17.80;99.90;;;;;;5035944;28;20515;-45
2021/07/25 04:58:50;;;;;;;25.87;21.80;;;17.80;99.90;;;;;;5036297;28;20482;-43
2021/07/25 05:01:21;;;;;;;30.10;23.60;;;17.80;99.90;;;;;;5029262;28;20421;-47
2021/07/25 05:03:47;;;;;;;25.20;22.23;;;17.90;99.90;;;;;;5035098;28;20440;-45
2021/07/25 05:06:14;;;;;;;27.23;21.20;;;17.90;99.90;;;;;;5027479;28;20807;-43
2021/07/25 05:08:41;;;;;;;29.07;23.67;;;18.00;99.90;;;;;;5028084;28;20549;-41
2021/07/25 05:11:15;;;;;;;26.57;21.80;;;18.10;99.90;;;;;;5036427;28;20428;-40
2021/07/25 05:13:44;;;;;;;23.63;21.13;;;18.10;99.90;;;;;;5044327;28;20555;-43
2021/07/25 05:16:11;;;;;;;27.20;22.60;;;18.10;99.90;;;;;;5028366;28;20436;-43
2021/07/25 05:18:41;;;;;;;24.00;20.47;;;18.20;99.90;;;;;;5031282;28;20429;-43
2021/07/25 05:21:16;;;;;;;22.50;20.20;;;18.30;99.90;;;;;;5029024;28;20779;-45
2021/07/25 05:23:44;;;;;;;21.40;18.27;;;18.30;99.90;;;;;;5027200;28;20938;-43
2021/07/25 05:26:12;;;;;;;25.40;20.93;;;18.30;99.90;;;;;;5041028;28;20839;-47
2021/07/25 05:28:39;;;;;;;20.90;17.73;;;18.30;99.90;;;;;;5036783;28;20965;-46
2021/07/25 05:31:07;;;;;;;19.90;17.83;;;18.30;99.90;;;;;;5028611;28;20425;-43
2021/07/25 05:33:32;;;;;;;21.17;18.37;;;18.30;99.90;;;;;;5040446;28;20515;-42
2021/07/25 05:35:58;;;;;;;22.13;18.77;;;18.40;99.90;;;;;;5028073;28;20847;-40
2021/07/25 05:38:24;;;;;;;22.50;17.00;;;18.40;99.90;;;;;;5027819;28;20792;-46
2021/07/25 05:40:50;;;;;;;19.83;17.00;;;18.40;99.90;;;;;;5035680;28;20214;-41
2021/07/25 05:43:16;;;;;;;17.60;15.30;;;18.50;99.90;;;;;;5036181;28;20500;-44
2021/07/25 05:45:43;;;;;;;17.80;15.87;;;18.60;99.90;;;;;;5030007;28;20424;-44
2021/07/25 05:48:08;;;;;;;17.60;15.20;;;18.60;99.90;;;;;;5031374;28;20428;-41
2021/07/25 05:50:34;;;;;;;18.33;15.50;;;18.70;99.90;;;;;;5028264;28;20420;-41
2021/07/25 05:53:01;;;;;;;16.63;14.93;;;18.70;99.90;;;;;;5027919;28;20219;-41
2021/07/25 05:55:34;;;;;;;17.93;16.03;;;18.80;99.90;;;;;;5039425;28;20182;-43
2021/07/25 05:58:00;;;;;;;16.47;14.80;;;18.90;99.90;;;;;;5037788;28;20914;-45
2021/07/25 06:00:26;;;;;;;15.73;14.10;;;19.00;99.90;;;;;;5039775;28;20420;-40
2021/07/25 06:02:57;;;;;;;16.30;14.57;;;19.10;99.90;;;;;;5035385;28;20428;-41
2021/07/25 06:05:26;;;;;;;16.50;14.30;;;19.20;99.90;;;;;;5042452;28;20435;-46
2021/07/25 06:07:52;;;;;;;14.20;12.80;;;19.40;99.90;;;;;;5047444;28;20512;-48
2021/07/25 06:10:20;;;;;;;14.07;12.50;;;19.50;99.90;;;;;;5038474;28;20460;-45
2021/07/25 06:12:45;;;;;;;13.77;12.37;;;19.60;99.90;;;;;;5043151;28;20491;-42
2021/07/25 06:15:12;;;;;;;13.47;12.10;;;19.80;99.90;;;;;;5034208;28;20458;-41
2021/07/25 06:17:38;;;;;;;12.73;10.83;;;20.00;99.90;;;;;;5042667;28;20417;-43
2021/07/25 06:20:04;;;;;;;12.47;11.20;;;20.10;99.90;;;;;;5041861;28;20439;-44
2021/07/25 06:22:37;;;;;;;12.80;11.60;;;20.20;99.90;;;;;;5049167;28;20694;-44
2021/07/25 06:25:04;;;;;;;12.80;10.97;;;20.20;99.90;;;;;;5036302;28;20441;-40
2021/07/25 06:27:29;;;;;;;12.73;11.43;;;20.30;99.90;;;;;;5047319;28;20432;-44
2021/07/25 06:29:55;;;;;;;11.43;9.53;;;20.40;99.90;;;;;;5039784;28;20460;-45
2021/07/25 06:32:21;;;;;;;11.63;10.43;;;20.40;99.90;;;;;;5032043;28;20222;-45
2021/07/25 06:34:46;;;;;;;12.83;9.07;;;20.50;99.90;;;;;;5037693;28;20193;-45
2021/07/25 06:37:12;;;;;;;10.67;9.20;;;20.70;99.90;;;;;;5040006;28;20190;-47
2021/07/25 06:39:38;;;;;;;10.10;9.10;;;20.80;99.90;;;;;;5030315;28;20273;-45
2021/07/25 06:42:03;;;;;;;9.20;8.20;;;20.80;99.90;;;;;;5042272;28;20230;-43
2021/07/25 06:44:29;;;;;;;9.27;8.17;;;20.90;99.90;;;;;;5045983;28;20217;-48
2021/07/25 06:46:54;;;;;;;7.40;6.70;;;20.90;99.90;;;;;;5035360;28;20218;-43
2021/07/25 06:49:20;;;;;;;8.10;7.30;;;21.00;99.90;;;;;;5029179;28;20658;-44
2021/07/25 06:51:46;;;;;;;7.73;6.93;;;21.00;99.90;;;;;;5028903;28;20684;-44
2021/07/25 06:54:11;;;;;;;6.27;5.67;;;21.10;99.90;;;;;;5028654;28;20699;-43
2021/07/25 06:56:37;;;;;;;7.87;6.33;;;21.10;99.90;;;;;;5046607;28;20182;-43
2021/07/25 06:59:03;;;;;;;8.57;6.23;;;21.20;99.90;;;;;;5044006;28;20246;-45
2021/07/25 07:01:28;;;;;;;6.33;5.73;;;21.20;99.90;;;;;;5028908;28;20304;-46
2021/07/25 07:03:54;;;;;;;7.10;5.97;;;21.30;99.90;;;;;;5028783;28;20198;-44
2021/07/25 07:06:20;;;;;;;6.40;5.70;;;21.20;99.90;;;;;;5047545;28;20189;-43
2021/07/25 07:08:45;;;;;;;6.93;5.30;;;21.20;99.90;;;;;;5044197;28;20676;-41
2021/07/25 07:11:11;;;;;;;5.67;5.17;;;21.30;99.90;;;;;;5039772;28;20198;-48
2021/07/25 07:13:38;;;;;;;6.33;5.73;;;21.30;99.90;;;;;;5038849;28;20317;-46
2021/07/25 07:16:04;;;;;;;5.83;5.30;;;21.30;99.90;;;;;;5035358;28;20511;-44
2021/07/25 07:18:29;;;;;;;7.93;5.00;;;21.50;99.90;;;;;;5036028;28;20205;-42
2021/07/25 07:20:55;;;;;;;6.93;5.23;;;21.60;99.90;;;;;;5035909;28;21105;-45
2021/07/25 07:23:23;;;;;;;6.20;5.60;;;21.70;99.90;;;;;;5038648;28;20194;-44
2021/07/25 07:25:50;;;;;;;6.30;5.20;;;21.90;99.90;;;;;;5037323;28;20192;-43
2021/07/25 07:28:17;;;;;;;5.30;4.80;;;22.00;99.90;;;;;;5039929;28;20821;-47
2021/07/25 07:30:43;;;;;;;5.53;5.00;;;22.20;99.90;;;;;;5041220;28;20433;-49
2021/07/25 07:33:10;;;;;;;5.47;4.60;;;22.30;99.90;;;;;;5034959;28;20484;-44
2021/07/25 07:35:36;;;;;;;15.70;5.20;;;22.30;99.90;;;;;;5026539;28;20508;-44
2021/07/25 07:38:03;;;;;;;7.80;5.10;;;22.40;99.90;;;;;;5040687;28;20503;-44
2021/07/25 07:40:29;;;;;;;6.37;5.40;;;22.40;99.90;;;;;;5038018;28;20437;-41
2021/07/25 07:42:55;;;;;;;5.50;4.90;;;22.40;99.90;;;;;;5036921;28;20421;-42
2021/07/25 07:45:21;;;;;;;5.93;4.60;;;22.30;99.90;;;;;;5034378;28;20508;-43
2021/07/25 07:47:48;;;;;;;6.70;6.00;;;22.30;99.90;;;;;;5032709;28;20413;-48
2021/07/25 07:50:18;;;;;;;5.60;4.87;;;22.20;99.90;;;;;;5042395;28;20420;-42
2021/07/25 07:52:44;;;;;;;5.47;4.97;;;22.10;99.90;;;;;;5032232;28;20464;-43
2021/07/25 07:55:10;;;;;;;5.90;5.30;;;22.10;99.90;;;;;;5033390;28;20451;-41
2021/07/25 07:57:35;;;;;;;5.50;5.00;;;22.10;99.90;;;;;;5035666;28;20420;-43
2021/07/25 08:00:02;;;;;;;5.37;4.87;;;22.20;99.90;;;;;;5032035;28;20191;-48
2021/07/25 08:02:28;;;;;;;6.00;5.40;;;22.20;99.90;;;;;;5032079;28;20587;-41
2021/07/25 08:04:54;;;;;;;5.60;5.10;;;22.20;99.90;;;;;;5027944;28;20810;-46
2021/07/25 08:07:20;;;;;;;6.13;4.80;;;22.20;99.90;;;;;;5039693;28;20443;-45
2021/07/25 08:09:45;;;;;;;5.50;4.90;;;22.20;99.90;;;;;;5027478;28;20198;-42
2021/07/25 08:12:11;;;;;;;6.03;5.43;;;22.20;99.90;;;;;;5035440;28;20944;-42
2021/07/25 08:14:36;;;;;;;5.37;4.97;;;22.20;99.90;;;;;;5032510;28;20199;-42
2021/07/25 08:17:02;;;;;;;5.73;4.70;;;22.30;99.90;;;;;;5041360;28;20193;-41
2021/07/25 08:19:28;;;;;;;5.13;4.30;;;22.20;99.90;;;;;;5032652;28;20209;-41
2021/07/25 08:21:54;;;;;;;5.63;5.03;;;22.20;99.90;;;;;;5029116;28;20752;-43
2021/07/25 08:24:20;;;;;;;5.50;5.00;;;22.40;99.90;;;;;;5038803;28;20504;-45
2021/07/25 08:26:45;;;;;;;7.00;5.20;;;22.30;99.90;;;;;;5037057;28;20277;-41
2021/07/25 08:29:11;;;;;;;8.83;5.20;;;22.30;99.90;;;;;;5043656;28;20543;-42
2021/07/25 08:31:37;;;;;;;5.40;4.90;;;22.30;99.90;;;;;;5026146;28;20225;-44
2021/07/25 08:34:03;;;;;;;6.47;5.00;;;22.30;99.90;;;;;;5028223;28;20692;-46
2021/07/25 08:36:28;;;;;;;5.17;4.67;;;22.30;99.90;;;;;;5025778;28;20183;-41
2021/07/25 08:38:54;;;;;;;6.13;5.13;;;22.30;99.90;;;;;;5026612;28;20352;-40
2021/07/25 08:41:47;;;;;;;5.37;4.80;;;22.30;99.90;;;;;;5039346;28;20221;-44
2021/07/25 08:44:31;;;;;;;5.40;4.90;;;22.30;99.90;;;;;;5038819;28;20190;-43
2021/07/25 08:46:57;;;;;;;6.90;5.20;;;22.40;99.90;;;;;;5026922;28;20448;-43
2021/07/25 08:49:48;;;;;;;7.40;5.07;;;22.40;99.90;;;;;;5026667;28;21055;-42
2021/07/25 08:52:22;;;;;;;4.87;4.33;;;22.40;99.90;;;;;;5023871;28;20429;-42
2021/07/25 08:54:48;;;;;;;8.27;5.00;;;22.50;99.90;;;;;;5024168;28;20464;-44
2021/07/25 08:57:17;;;;;;;8.83;4.40;;;22.50;99.90;;;;;;5035980;28;20428;-42
2021/07/25 08:59:44;;;;;;;5.20;4.63;;;22.60;99.90;;;;;;5035207;28;20190;-43
2021/07/25 09:02:18;;;;;;;5.30;4.43;;;22.60;99.90;;;;;;5029736;28;20409;-42
2021/07/25 09:04:45;;;;;;;5.20;4.40;;;22.70;99.90;;;;;;5041822;28;20448;-46
2021/07/25 09:07:12;;;;;;;5.00;4.60;;;22.80;99.90;;;;;;5027908;28;20478;-40
2021/07/25 09:09:39;;;;;;;5.30;4.80;;;22.90;99.90;;;;;;5026814;28;20448;-45
2021/07/25 09:12:05;;;;;;;7.27;4.70;;;22.90;99.90;;;;;;5040552;28;20421;-42
2021/07/25 09:14:30;;;;;;;5.37;4.87;;;23.10;99.90;;;;;;5040686;28;20789;-43
2021/07/25 09:16:56;;;;;;;5.33;4.60;;;23.20;99.90;;;;;;5034757;28;20421;-43
2021/07/25 09:19:22;;;;;;;5.33;4.63;;;23.30;99.90;;;;;;5030836;28;20206;-44
2021/07/25 09:21:52;;;;;;;5.93;4.57;;;23.50;99.90;;;;;;5029205;28;20190;-42
2021/07/25 09:24:31;;;;;;;5.60;4.60;;;23.50;99.90;;;;;;5028915;28;20240;-42
2021/07/25 09:27:01;;;;;;;5.87;4.90;;;23.70;99.90;;;;;;5040669;28;20443;-42
2021/07/25 09:29:35;;;;;;;6.10;4.43;;;23.70;99.90;;;;;;5036662;28;20437;-45
2021/07/25 09:32:17;;;;;;;4.33;3.93;;;23.80;99.90;;;;;;5028346;28;20433;-46
2021/07/25 09:34:46;;;;;;;4.60;4.17;;;23.90;99.90;;;;;;5041770;28;20462;-49
2021/07/25 09:37:16;;;;;;;5.17;4.40;;;24.10;99.90;;;;;;5030205;28;21138;-43
2021/07/25 09:39:45;;;;;;;4.27;3.67;;;24.20;99.90;;;;;;5029912;28;20409;-44
2021/07/25 09:42:11;;;;;;;4.53;4.03;;;24.40;99.90;;;;;;5031181;28;20424;-43
2021/07/25 09:44:45;;;;;;;4.40;4.00;;;24.50;99.90;;;;;;5028536;28;20786;-45
2021/07/25 09:47:33;;;;;;;6.30;4.30;;;24.50;99.90;;;;;;5027270;28;20837;-44
2021/07/25 09:50:01;;;;;;;4.30;3.90;;;24.50;99.90;;;;;;5035869;28;20417;-42
2021/07/25 09:52:38;;;;;;;5.30;4.27;;;24.60;99.90;;;;;;5028462;28;20471;-43
2021/07/25 09:55:08;;;;;;;6.60;3.90;;;24.70;99.90;;;;;;5034135;28;20991;-43
2021/07/25 09:57:35;;;;;;;4.57;3.70;;;24.80;99.90;;;;;;5036508;28;20453;-41
2021/07/25 10:00:09;;;;;;;7.23;3.70;;;25.00;99.90;;;;;;5044606;28;20432;-45
2021/07/25 10:02:39;;;;;;;4.83;3.67;;;25.00;99.90;;;;;;5031805;28;21001;-43
2021/07/25 10:05:26;;;;;;;5.93;4.23;;;25.20;99.90;;;;;;5031371;28;20437;-45
2021/07/25 10:07:51;;;;;;;4.23;3.83;;;25.30;99.90;;;;;;5026542;28;20939;-42
2021/07/25 10:10:19;;;;;;;6.70;4.20;;;25.30;99.90;;;;;;5025912;28;20451;-42
2021/07/25 10:12:46;;;;;;;5.10;4.00;;;25.30;99.90;;;;;;5037799;28;20213;-43
2021/07/25 10:15:14;;;;;;;5.07;4.30;;;25.30;99.90;;;;;;5039266;28;20421;-42
2021/07/25 10:17:41;;;;;;;5.20;3.40;;;25.30;99.90;;;;;;5026378;28;20436;-44
2021/07/25 10:20:09;;;;;;;4.03;3.43;;;25.40;99.90;;;;;;5039742;28;20425;-43
2021/07/25 10:22:36;;;;;;;5.83;3.70;;;25.30;99.90;;;;;;5027682;28;20452;-43
2021/07/25 10:25:09;;;;;;;4.73;3.60;;;25.40;99.90;;;;;;5026796;28;20480;-43
2021/07/25 10:27:36;;;;;;;4.70;3.60;;;25.40;99.90;;;;;;5035172;28;20440;-42
2021/07/25 10:30:09;;;;;;;4.07;3.67;;;25.50;99.90;;;;;;5036718;28;20429;-45
2021/07/25 10:32:38;;;;;;;4.37;3.97;;;25.50;99.90;;;;;;5027115;28;20457;-45
2021/07/25 10:35:09;;;;;;;4.20;3.80;;;25.60;99.90;;;;;;5034118;28;20420;-43
2021/07/25 10:37:40;;;;;;;4.67;3.77;;;25.70;99.90;;;;;;5025485;28;20796;-46
2021/07/25 10:40:09;;;;;;;5.80;3.90;;;25.80;99.90;;;;;;5027131;28;20422;-42
2021/07/25 10:42:49;;;;;;;5.03;3.50;;;25.90;99.90;;;;;;5035109;28;20427;-44
2021/07/25 10:45:15;;;;;;;4.27;3.97;;;26.00;99.90;;;;;;5036056;28;20436;-43
2021/07/25 10:47:43;;;;;;;3.60;3.30;;;25.80;99.90;;;;;;5033881;28;20467;-43
2021/07/25 10:50:29;;;;;;;3.80;3.37;;;25.70;99.90;;;;;;5025591;28;20191;-43
2021/07/25 10:52:55;;;;;;;4.70;4.20;;;25.70;99.90;;;;;;5026013;28;20468;-43
2021/07/25 10:55:40;;;;;;;4.97;3.50;;;25.60;99.90;;;;;;5026398;28;20433;-40
2021/07/25 10:58:08;;;;;;;3.93;3.13;;;25.50;99.90;;;;;;5043662;28;20466;-43
2021/07/25 11:00:50;;;;;;;3.67;3.27;;;25.30;99.90;;;;;;5041912;28;20418;-44
2021/07/25 11:03:25;;;;;;;4.93;3.77;;;25.40;99.90;;;;;;5026226;28;20417;-40
2021/07/25 11:06:05;;;;;;;3.67;3.37;;;25.50;99.90;;;;;;5039842;28;20420;-43
2021/07/25 11:08:46;;;;;;;5.40;3.70;;;25.80;99.90;;;;;;5026271;28;20787;-42
2021/07/25 11:11:34;;;;;;;4.03;3.20;;;25.90;99.90;;;;;;5027692;28;20577;-43
2021/07/25 11:14:02;;;;;;;6.00;3.93;;;25.90;99.90;;;;;;5035910;28;20510;-45
2021/07/25 11:16:28;;;;;;;3.57;3.27;;;25.90;99.90;;;;;;5036255;28;20443;-41
2021/07/25 11:18:54;;;;;;;3.50;3.20;;;25.80;99.90;;;;;;5033837;28;20432;-46
2021/07/25 11:21:36;;;;;;;3.20;3.00;;;25.70;99.90;;;;;;5037648;28;20264;-43
2021/07/25 11:24:23;;;;;;;4.63;3.30;;;25.80;99.90;;;;;;5036048;28;20507;-46
2021/07/25 11:26:49;;;;;;;3.90;3.50;;;25.70;99.90;;;;;;5033490;28;20533;-45
2021/07/25 11:29:19;;;;;;;3.93;3.40;;;25.60;99.90;;;;;;5039392;28;20842;-41
2021/07/25 11:31:46;;;;;;;4.03;3.63;;;25.50;99.90;;;;;;5037331;28;20475;-42
2021/07/25 11:34:33;;;;;;;3.97;3.57;;;25.50;99.90;;;;;;5026202;28;20488;-45
2021/07/25 11:37:08;;;;;;;4.00;3.33;;;25.40;99.90;;;;;;5027955;28;20417;-45
2021/07/25 11:39:34;;;;;;;4.57;3.70;;;25.40;99.90;;;;;;5025842;28;20570;-43
2021/07/25 11:42:05;;;;;;;4.40;3.67;;;25.30;99.90;;;;;;5031700;28;20424;-45
2021/07/25 11:44:32;;;;;;;3.50;3.20;;;25.30;99.90;;;;;;5036833;28;20429;-40
2021/07/25 11:46:59;;;;;;;3.40;3.00;;;25.30;99.90;;;;;;5025685;28;20452;-42
2021/07/25 11:49:26;;;;;;;3.97;3.23;;;25.40;99.90;;;;;;5026554;28;20421;-43
2021/07/25 11:52:05;;;;;;;3.87;3.53;;;25.40;99.90;;;;;;5027907;28;20417;-43
2021/07/25 11:54:37;;;;;;;4.17;3.17;;;25.40;99.90;;;;;;5028169;28;20563;-41
2021/07/25 11:57:29;;;;;;;3.97;3.33;;;25.50;99.90;;;;;;5043369;28;20431;-44
2021/07/25 12:00:03;;;;;;;3.00;2.70;;;25.70;99.90;;;;;;5029402;28;20430;-42
2021/07/25 12:02:30;;;;;;;3.53;3.23;;;25.90;99.90;;;;;;5024230;28;20409;-44
2021/07/25 12:04:59;;;;;;;2.97;2.67;;;25.90;99.90;;;;;;5024142;28;20738;-45
2021/07/25 12:07:32;;;;;;;3.47;2.67;;;26.10;99.90;;;;;;5025724;28;20425;-44
2021/07/25 12:09:57;;;;;;;3.10;2.90;;;26.10;99.20;;;;;;5025564;28;20433;-42
2021/07/25 12:12:36;;;;;;;3.43;3.13;;;26.10;99.90;;;;;;5033398;28;20444;-46
2021/07/25 12:15:04;;;;;;;3.30;3.00;;;26.00;99.90;;;;;;5036778;28;20181;-43
2021/07/25 12:17:44;;;;;;;3.20;2.50;;;25.90;99.00;;;;;;5026368;28;21400;-42
2021/07/25 12:20:21;;;;;;;4.73;3.20;;;26.00;99.20;;;;;;5031417;28;20423;-41
2021/07/25 12:22:54;;;;;;;3.50;2.63;;;26.10;99.90;;;;;;5025537;28;20421;-41
2021/07/25 12:25:20;;;;;;;3.97;2.97;;;26.20;99.50;;;;;;5025162;28;20935;-45
2021/07/25 12:27:46;;;;;;;4.13;2.90;;;26.20;99.80;;;;;;5027006;28;20460;-43
2021/07/25 12:30:17;;;;;;;3.27;2.70;;;26.20;99.80;;;;;;5036072;28;20409;-41
2021/07/25 12:32:47;;;;;;;3.40;2.97;;;26.20;99.50;;;;;;5035507;28;21218;-45
2021/07/25 12:35:20;;;;;;;2.73;2.53;;;26.20;98.00;;;;;;5043971;28;20460;-40
2021/07/25 12:37:51;;;;;;;3.23;2.27;;;26.20;97.80;;;;;;5027956;28;20417;-44
2021/07/25 12:40:19;;;;;;;4.23;2.90;;;26.20;97.50;;;;;;5028923;28;20423;-44
2021/07/25 12:42:57;;;;;;;2.53;2.33;;;26.20;96.90;;;;;;5035294;28;20437;-45